sensor_id;sensor_type;location;lat;lon;timestamp;temperature;humidity
7388;DHT22;3735;50.136;11.062;2022-09-09T00:04:48;10.90;99.90
7388;DHT22;3735;50.136;11.062;2022-09-09T00:10:37;11.00;99.90
7388;DHT22;3735;50.136;11.062;2022-09-09T00:16:17;11.00;99.90
7388;DHT22;3735;50.136;11.062;2022-09-09T00:24:48;11.10;99.90
7388;DHT22;3735;50.136;11.062;2022-09-09T00:28:07;11.00;99.90
7388;DHT22;3735;50.136;11.062;2022-09-09T00:32:54;11.00;99.90
7388;DHT22;3735;50.136;11.062;2022-09-09T00:35:29;10.90;99.90
7388;DHT22;3735;50.136;11.062;2022-09-09T00:38:15;10.90;99.90
7388;DHT22;3735;50.136;11.062;2022-09-09T00:44:31;11.00;99.90
7388;DHT22;3735;50.136;11.062;2022-09-09T00:57:38;11.50;99.90
7388;DHT22;3735;50.136;11.062;2022-09-09T01:14:48;11.80;99.90
7388;DHT22;3735;50.136;11.062;2022-09-09T01:17:27;11.80;99.90
7388;DHT22;3735;50.136;11.062;2022-09-09T01:26:14;11.80;99.90
7388;DHT22;3735;50.136;11.062;2022-09-09T01:28:48;11.70;99.90
7388;DHT22;3735;50.136;11.062;2022-09-09T01:31:21;11.60;99.90
7388;DHT22;3735;50.136;11.062;2022-09-09T01:33:52;11.60;99.90
7388;DHT22;3735;50.136;11.062;2022-09-09T01:36:48;11.60;99.90
7388;DHT22;3735;50.136;11.062;2022-09-09T01:39:26;11.50;99.90
7388;DHT22;3735;50.136;11.062;2022-09-09T01:41:53;11.40;99.90
7388;DHT22;3735;50.136;11.062;2022-09-09T01:44:20;11.30;99.90
7388;DHT22;3735;50.136;11.062;2022-09-09T01:46:47;11.20;99.90
7388;DHT22;3735;50.136;11.062;2022-09-09T01:49:13;11.20;99.90
7388;DHT22;3735;50.136;11.062;2022-09-09T01:51:41;11.20;99.90
7388;DHT22;3735;50.136;11.062;2022-09-09T01:54:08;11.20;99.90
7388;DHT22;3735;50.136;11.062;2022-09-09T02:11:01;11.50;99.90
7388;DHT22;3735;50.136;11.062;2022-09-09T02:13:32;11.60;99.90
7388;DHT22;3735;50.136;11.062;2022-09-09T02:18:56;11.70;99.90
7388;DHT22;3735;50.136;11.062;2022-09-09T02:21:30;11.70;99.90
7388;DHT22;3735;50.136;11.062;2022-09-09T02:23:59;11.80;99.90
7388;DHT22;3735;50.136;11.062;2022-09-09T02:26:33;11.80;99.90
7388;DHT22;3735;50.136;11.062;2022-09-09T02:29:04;11.80;99.90
7388;DHT22;3735;50.136;11.062;2022-09-09T02:31:34;11.80;99.90
7388;DHT22;3735;50.136;11.062;2022-09-09T02:34:05;11.90;99.90
7388;DHT22;3735;50.136;11.062;2022-09-09T02:36:36;11.90;99.90
7388;DHT22;3735;50.136;11.062;2022-09-09T02:39:08;11.90;99.90
7388;DHT22;3735;50.136;11.062;2022-09-09T02:41:38;11.90;99.90
7388;DHT22;3735;50.136;11.062;2022-09-09T02:44:17;11.90;99.90
7388;DHT22;3735;50.136;11.062;2022-09-09T02:53:16;11.80;99.90
7388;DHT22;3735;50.136;11.062;2022-09-09T02:56:16;11.80;99.90
7388;DHT22;3735;50.136;11.062;2022-09-09T02:58:45;11.90;99.90
7388;DHT22;3735;50.136;11.062;2022-09-09T03:01:12;11.90;99.90
7388;DHT22;3735;50.136;11.062;2022-09-09T03:03:38;11.90;99.90
7388;DHT22;3735;50.136;11.062;2022-09-09T03:06:05;11.90;99.90
7388;DHT22;3735;50.136;11.062;2022-09-09T03:08:31;11.90;99.90
7388;DHT22;3735;50.136;11.062;2022-09-09T03:10:58;11.90;99.90
7388;DHT22;3735;50.136;11.062;2022-09-09T03:13:26;11.90;99.90
7388;DHT22;3735;50.136;11.062;2022-09-09T03:15:52;12.00;99.90
7388;DHT22;3735;50.136;11.062;2022-09-09T03:18:18;12.10;99.90
7388;DHT22;3735;50.136;11.062;2022-09-09T03:20:44;12.20;99.90
7388;DHT22;3735;50.136;11.062;2022-09-09T03:23:14;12.20;99.90
7388;DHT22;3735;50.136;11.062;2022-09-09T03:25:46;12.30;99.90
7388;DHT22;3735;50.136;11.062;2022-09-09T03:28:13;12.30;99.90
7388;DHT22;3735;50.136;11.062;2022-09-09T03:30:40;12.30;99.90
7388;DHT22;3735;50.136;11.062;2022-09-09T03:33:06;12.40;99.90
7388;DHT22;3735;50.136;11.062;2022-09-09T03:35:32;12.40;99.90
7388;DHT22;3735;50.136;11.062;2022-09-09T03:37:58;12.40;99.90
7388;DHT22;3735;50.136;11.062;2022-09-09T03:40:23;12.40;99.90
7388;DHT22;3735;50.136;11.062;2022-09-09T03:42:49;12.50;99.90
7388;DHT22;3735;50.136;11.062;2022-09-09T03:45:15;12.50;99.90
7388;DHT22;3735;50.136;11.062;2022-09-09T03:47:42;12.50;99.90
7388;DHT22;3735;50.136;11.062;2022-09-09T03:50:08;12.50;99.90
7388;DHT22;3735;50.136;11.062;2022-09-09T03:52:40;12.50;99.90
7388;DHT22;3735;50.136;11.062;2022-09-09T03:55:08;12.50;99.90
7388;DHT22;3735;50.136;11.062;2022-09-09T03:57:34;12.50;99.90
7388;DHT22;3735;50.136;11.062;2022-09-09T04:00:06;12.50;99.90
7388;DHT22;3735;50.136;11.062;2022-09-09T04:02:32;12.50;99.90
7388;DHT22;3735;50.136;11.062;2022-09-09T04:04:58;12.50;99.90
7388;DHT22;3735;50.136;11.062;2022-09-09T04:07:25;12.50;99.90
7388;DHT22;3735;50.136;11.062;2022-09-09T04:09:52;12.40;99.90
7388;DHT22;3735;50.136;11.062;2022-09-09T04:12:19;12.50;99.90
7388;DHT22;3735;50.136;11.062;2022-09-09T04:14:46;12.40;99.90
7388;DHT22;3735;50.136;11.062;2022-09-09T04:17:12;12.40;99.90
7388;DHT22;3735;50.136;11.062;2022-09-09T04:19:38;12.40;99.90
7388;DHT22;3735;50.136;11.062;2022-09-09T04:22:04;12.40;99.90
7388;DHT22;3735;50.136;11.062;2022-09-09T04:24:29;12.50;99.90
7388;DHT22;3735;50.136;11.062;2022-09-09T04:26:55;12.50;99.90
7388;DHT22;3735;50.136;11.062;2022-09-09T04:29:21;12.50;99.90
7388;DHT22;3735;50.136;11.062;2022-09-09T04:31:47;12.60;99.90
7388;DHT22;3735;50.136;11.062;2022-09-09T04:34:12;12.60;99.90
7388;DHT22;3735;50.136;11.062;2022-09-09T04:36:38;12.60;99.90
7388;DHT22;3735;50.136;11.062;2022-09-09T04:39:05;12.70;99.90
7388;DHT22;3735;50.136;11.062;2022-09-09T04:41:31;12.70;99.90
7388;DHT22;3735;50.136;11.062;2022-09-09T04:43:57;12.70;99.90
7388;DHT22;3735;50.136;11.062;2022-09-09T04:46:25;12.80;99.90
7388;DHT22;3735;50.136;11.062;2022-09-09T04:48:51;12.80;99.90
7388;DHT22;3735;50.136;11.062;2022-09-09T04:51:18;12.80;99.90
7388;DHT22;3735;50.136;11.062;2022-09-09T04:53:45;12.80;99.90
7388;DHT22;3735;50.136;11.062;2022-09-09T04:56:14;12.90;99.90
7388;DHT22;3735;50.136;11.062;2022-09-09T04:58:41;12.90;99.90
7388;DHT22;3735;50.136;11.062;2022-09-09T05:01:16;12.90;99.90
7388;DHT22;3735;50.136;11.062;2022-09-09T05:03:44;12.90;99.90
7388;DHT22;3735;50.136;11.062;2022-09-09T05:06:18;13.00;99.90
7388;DHT22;3735;50.136;11.062;2022-09-09T05:08:45;13.00;99.90
7388;DHT22;3735;50.136;11.062;2022-09-09T05:11:19;13.10;99.90
7388;DHT22;3735;50.136;11.062;2022-09-09T05:13:49;13.10;99.90
7388;DHT22;3735;50.136;11.062;2022-09-09T05:16:16;13.10;99.90
7388;DHT22;3735;50.136;11.062;2022-09-09T05:18:42;13.20;99.90
7388;DHT22;3735;50.136;11.062;2022-09-09T05:21:13;13.30;99.90
7388;DHT22;3735;50.136;11.062;2022-09-09T05:23:40;13.30;99.90
7388;DHT22;3735;50.136;11.062;2022-09-09T05:26:07;13.40;99.90
7388;DHT22;3735;50.136;11.062;2022-09-09T05:28:37;13.50;99.90
7388;DHT22;3735;50.136;11.062;2022-09-09T05:31:05;13.60;99.90
7388;DHT22;3735;50.136;11.062;2022-09-09T05:33:37;13.70;99.90
7388;DHT22;3735;50.136;11.062;2022-09-09T05:36:08;13.80;99.90
7388;DHT22;3735;50.136;11.062;2022-09-09T05:38:36;13.90;99.90
7388;DHT22;3735;50.136;11.062;2022-09-09T05:41:02;14.00;99.90
7388;DHT22;3735;50.136;11.062;2022-09-09T05:43:29;14.10;99.90
7388;DHT22;3735;50.136;11.062;2022-09-09T05:46:14;14.20;99.90
7388;DHT22;3735;50.136;11.062;2022-09-09T05:48:41;14.20;99.90
7388;DHT22;3735;50.136;11.062;2022-09-09T05:51:10;14.10;99.90
7388;DHT22;3735;50.136;11.062;2022-09-09T05:53:38;14.10;99.90
7388;DHT22;3735;50.136;11.062;2022-09-09T05:56:09;14.20;99.90
7388;DHT22;3735;50.136;11.062;2022-09-09T05:58:37;14.20;99.90
7388;DHT22;3735;50.136;11.062;2022-09-09T06:01:11;14.30;99.90
7388;DHT22;3735;50.136;11.062;2022-09-09T06:03:40;14.30;99.90
7388;DHT22;3735;50.136;11.062;2022-09-09T06:06:10;14.40;99.90
7388;DHT22;3735;50.136;11.062;2022-09-09T06:08:39;14.40;99.90
7388;DHT22;3735;50.136;11.062;2022-09-09T06:11:18;14.60;99.90
7388;DHT22;3735;50.136;11.062;2022-09-09T06:13:49;14.60;99.90
7388;DHT22;3735;50.136;11.062;2022-09-09T06:16:20;14.70;99.90
7388;DHT22;3735;50.136;11.062;2022-09-09T06:18:49;14.80;99.90
7388;DHT22;3735;50.136;11.062;2022-09-09T06:21:18;14.80;99.90
7388;DHT22;3735;50.136;11.062;2022-09-09T06:23:46;14.90;99.90
7388;DHT22;3735;50.136;11.062;2022-09-09T06:26:24;14.90;99.90
7388;DHT22;3735;50.136;11.062;2022-09-09T06:28:58;15.00;99.90
7388;DHT22;3735;50.136;11.062;2022-09-09T06:31:27;15.20;99.90
7388;DHT22;3735;50.136;11.062;2022-09-09T06:33:56;15.50;99.90
7388;DHT22;3735;50.136;11.062;2022-09-09T06:36:29;15.80;99.90
7388;DHT22;3735;50.136;11.062;2022-09-09T06:38:57;16.00;99.90
7388;DHT22;3735;50.136;11.062;2022-09-09T06:41:24;16.10;99.90
7388;DHT22;3735;50.136;11.062;2022-09-09T06:43:52;16.20;99.90
7388;DHT22;3735;50.136;11.062;2022-09-09T06:46:21;16.30;99.90
7388;DHT22;3735;50.136;11.062;2022-09-09T06:48:48;16.30;99.90
7388;DHT22;3735;50.136;11.062;2022-09-09T06:51:18;16.30;99.90
7388;DHT22;3735;50.136;11.062;2022-09-09T06:53:47;16.30;99.90
7388;DHT22;3735;50.136;11.062;2022-09-09T06:56:21;16.40;99.90
7388;DHT22;3735;50.136;11.062;2022-09-09T06:58:51;16.60;99.90
7388;DHT22;3735;50.136;11.062;2022-09-09T07:01:20;16.90;99.90
7388;DHT22;3735;50.136;11.062;2022-09-09T07:03:50;17.10;99.90
7388;DHT22;3735;50.136;11.062;2022-09-09T07:06:21;17.40;99.90
7388;DHT22;3735;50.136;11.062;2022-09-09T07:08:52;18.10;99.90
7388;DHT22;3735;50.136;11.062;2022-09-09T07:11:21;19.50;99.90
7388;DHT22;3735;50.136;11.062;2022-09-09T07:13:48;20.10;99.90
7388;DHT22;3735;50.136;11.062;2022-09-09T07:16:17;20.20;99.90
7388;DHT22;3735;50.136;11.062;2022-09-09T07:18:44;20.10;99.90
7388;DHT22;3735;50.136;11.062;2022-09-09T07:21:11;20.00;99.90
7388;DHT22;3735;50.136;11.062;2022-09-09T07:23:38;19.90;99.90
7388;DHT22;3735;50.136;11.062;2022-09-09T07:26:15;19.90;99.90
7388;DHT22;3735;50.136;11.062;2022-09-09T07:28:44;19.90;99.90
7388;DHT22;3735;50.136;11.062;2022-09-09T07:31:21;20.10;99.90
7388;DHT22;3735;50.136;11.062;2022-09-09T07:33:50;20.40;99.90
7388;DHT22;3735;50.136;11.062;2022-09-09T07:36:19;20.50;99.90
7388;DHT22;3735;50.136;11.062;2022-09-09T07:38:55;20.50;99.90
7388;DHT22;3735;50.136;11.062;2022-09-09T07:41:25;20.40;99.90
7388;DHT22;3735;50.136;11.062;2022-09-09T07:43:56;20.20;99.90
7388;DHT22;3735;50.136;11.062;2022-09-09T07:46:24;20.10;99.90
7388;DHT22;3735;50.136;11.062;2022-09-09T07:48:53;20.00;99.90
7388;DHT22;3735;50.136;11.062;2022-09-09T07:51:38;19.80;99.90
7388;DHT22;3735;50.136;11.062;2022-09-09T07:54:09;19.40;99.90
7388;DHT22;3735;50.136;11.062;2022-09-09T07:56:37;19.30;99.90
7388;DHT22;3735;50.136;11.062;2022-09-09T07:59:04;19.10;99.90
7388;DHT22;3735;50.136;11.062;2022-09-09T08:01:32;18.90;99.90
7388;DHT22;3735;50.136;11.062;2022-09-09T08:04:05;19.10;99.90
7388;DHT22;3735;50.136;11.062;2022-09-09T08:06:35;19.30;99.90
7388;DHT22;3735;50.136;11.062;2022-09-09T08:09:04;19.80;99.90
7388;DHT22;3735;50.136;11.062;2022-09-09T08:11:30;20.40;99.90
7388;DHT22;3735;50.136;11.062;2022-09-09T08:13:57;21.10;99.90
7388;DHT22;3735;50.136;11.062;2022-09-09T08:16:25;21.60;99.90
7388;DHT22;3735;50.136;11.062;2022-09-09T08:18:53;21.90;99.90
7388;DHT22;3735;50.136;11.062;2022-09-09T08:21:25;22.30;99.90
7388;DHT22;3735;50.136;11.062;2022-09-09T08:23:54;23.20;99.90
7388;DHT22;3735;50.136;11.062;2022-09-09T08:26:29;24.50;99.90
7388;DHT22;3735;50.136;11.062;2022-09-09T08:28:58;25.30;99.90
7388;DHT22;3735;50.136;11.062;2022-09-09T08:33:54;24.70;99.90
7388;DHT22;3735;50.136;11.062;2022-09-09T08:36:25;24.40;99.90
7388;DHT22;3735;50.136;11.062;2022-09-09T08:38:54;25.00;99.90
7388;DHT22;3735;50.136;11.062;2022-09-09T08:47:34;24.60;99.90
7388;DHT22;3735;50.136;11.062;2022-09-09T08:50:26;24.30;99.90
7388;DHT22;3735;50.136;11.062;2022-09-09T08:53:02;24.10;99.90
7388;DHT22;3735;50.136;11.062;2022-09-09T08:58:32;24.60;99.90
7388;DHT22;3735;50.136;11.062;2022-09-09T09:10:50;21.90;99.90
7388;DHT22;3735;50.136;11.062;2022-09-09T09:13:33;21.50;99.90
7388;DHT22;3735;50.136;11.062;2022-09-09T09:18:52;21.00;99.90
7388;DHT22;3735;50.136;11.062;2022-09-09T09:21:42;20.80;99.90
7388;DHT22;3735;50.136;11.062;2022-09-09T09:24:23;20.70;99.90
7388;DHT22;3735;50.136;11.062;2022-09-09T09:26:59;20.60;99.90
7388;DHT22;3735;50.136;11.062;2022-09-09T09:29:32;20.80;99.90
7388;DHT22;3735;50.136;11.062;2022-09-09T09:32:02;21.20;99.90
7388;DHT22;3735;50.136;11.062;2022-09-09T09:34:29;21.30;99.90
7388;DHT22;3735;50.136;11.062;2022-09-09T09:36:56;21.60;99.90
7388;DHT22;3735;50.136;11.062;2022-09-09T09:39:32;21.70;99.90
7388;DHT22;3735;50.136;11.062;2022-09-09T09:42:14;22.00;99.90
7388;DHT22;3735;50.136;11.062;2022-09-09T09:44:42;22.20;99.90
7388;DHT22;3735;50.136;11.062;2022-09-09T09:47:29;22.30;99.90
7388;DHT22;3735;50.136;11.062;2022-09-09T09:49:59;22.40;99.90
7388;DHT22;3735;50.136;11.062;2022-09-09T09:52:28;22.70;99.90
7388;DHT22;3735;50.136;11.062;2022-09-09T09:54:57;23.10;99.90
7388;DHT22;3735;50.136;11.062;2022-09-09T09:57:27;23.60;99.90
7388;DHT22;3735;50.136;11.062;2022-09-09T10:00:16;24.60;99.90
7388;DHT22;3735;50.136;11.062;2022-09-09T10:02:45;26.90;99.90
7388;DHT22;3735;50.136;11.062;2022-09-09T10:05:20;29.60;99.90
7388;DHT22;3735;50.136;11.062;2022-09-09T10:22:47;35.20;46.30
7388;DHT22;3735;50.136;11.062;2022-09-09T10:34:01;34.20;43.40
7388;DHT22;3735;50.136;11.062;2022-09-09T10:36:44;32.80;50.70
7388;DHT22;3735;50.136;11.062;2022-09-09T10:39:36;30.70;60.60
7388;DHT22;3735;50.136;11.062;2022-09-09T10:42:30;28.30;93.20
7388;DHT22;3735;50.136;11.062;2022-09-09T10:48:18;25.40;99.90
7388;DHT22;3735;50.136;11.062;2022-09-09T10:51:26;25.20;99.90
7388;DHT22;3735;50.136;11.062;2022-09-09T10:54:22;25.80;99.90
7388;DHT22;3735;50.136;11.062;2022-09-09T10:56:58;29.30;99.90
7388;DHT22;3735;50.136;11.062;2022-09-09T10:59:33;32.50;87.00
7388;DHT22;3735;50.136;11.062;2022-09-09T11:02:15;33.10;65.20
7388;DHT22;3735;50.136;11.062;2022-09-09T11:05:05;34.50;54.60
7388;DHT22;3735;50.136;11.062;2022-09-09T11:07:44;36.00;46.20
7388;DHT22;3735;50.136;11.062;2022-09-09T11:13:14;37.60;39.40
7388;DHT22;3735;50.136;11.062;2022-09-09T11:15:49;35.60;38.20
7388;DHT22;3735;50.136;11.062;2022-09-09T11:18:20;34.40;45.40
7388;DHT22;3735;50.136;11.062;2022-09-09T11:20:53;34.80;43.00
7388;DHT22;3735;50.136;11.062;2022-09-09T11:23:40;35.70;42.00
7388;DHT22;3735;50.136;11.062;2022-09-09T11:26:18;36.50;35.80
7388;DHT22;3735;50.136;11.062;2022-09-09T11:28:58;36.90;33.70
7388;DHT22;3735;50.136;11.062;2022-09-09T11:31:54;35.60;33.50
7388;DHT22;3735;50.136;11.062;2022-09-09T11:34:43;35.80;35.90
7388;DHT22;3735;50.136;11.062;2022-09-09T11:40:28;36.00;34.40
7388;DHT22;3735;50.136;11.062;2022-09-09T11:43:08;36.20;34.00
7388;DHT22;3735;50.136;11.062;2022-09-09T11:45:40;36.90;32.40
7388;DHT22;3735;50.136;11.062;2022-09-09T11:48:25;37.10;29.30
7388;DHT22;3735;50.136;11.062;2022-09-09T11:51:12;36.20;28.90
7388;DHT22;3735;50.136;11.062;2022-09-09T11:53:58;35.00;30.20
7388;DHT22;3735;50.136;11.062;2022-09-09T11:56:50;34.10;31.60
7388;DHT22;3735;50.136;11.062;2022-09-09T11:59:24;34.70;33.10
7388;DHT22;3735;50.136;11.062;2022-09-09T12:01:58;34.80;31.30
7388;DHT22;3735;50.136;11.062;2022-09-09T12:05:07;33.40;31.30
7388;DHT22;3735;50.136;11.062;2022-09-09T12:12:35;29.00;45.50
7388;DHT22;3735;50.136;11.062;2022-09-09T12:17:42;26.60;77.50
7388;DHT22;3735;50.136;11.062;2022-09-09T12:20:23;25.60;95.80
7388;DHT22;3735;50.136;11.062;2022-09-09T12:34:42;23.90;99.90
7388;DHT22;3735;50.136;11.062;2022-09-09T12:37:47;24.10;99.90
7388;DHT22;3735;50.136;11.062;2022-09-09T12:40:25;24.80;99.90
7388;DHT22;3735;50.136;11.062;2022-09-09T12:42:57;24.80;99.90
7388;DHT22;3735;50.136;11.062;2022-09-09T12:45:26;24.70;99.90
7388;DHT22;3735;50.136;11.062;2022-09-09T12:48:08;24.80;99.90
7388;DHT22;3735;50.136;11.062;2022-09-09T12:50:48;24.60;99.90
7388;DHT22;3735;50.136;11.062;2022-09-09T12:53:30;26.60;99.90
7388;DHT22;3735;50.136;11.062;2022-09-09T12:56:07;26.80;99.90
7388;DHT22;3735;50.136;11.062;2022-09-09T12:58:45;25.40;99.90
7388;DHT22;3735;50.136;11.062;2022-09-09T13:03:58;24.20;99.90
7388;DHT22;3735;50.136;11.062;2022-09-09T13:06:30;24.90;99.90
7388;DHT22;3735;50.136;11.062;2022-09-09T13:08:59;26.90;99.90
7388;DHT22;3735;50.136;11.062;2022-09-09T13:11:30;29.20;89.40
7388;DHT22;3735;50.136;11.062;2022-09-09T13:14:02;30.80;70.90
7388;DHT22;3735;50.136;11.062;2022-09-09T13:16:34;31.70;52.80
7388;DHT22;3735;50.136;11.062;2022-09-09T13:19:06;32.00;48.20
7388;DHT22;3735;50.136;11.062;2022-09-09T13:21:35;32.50;44.20
7388;DHT22;3735;50.136;11.062;2022-09-09T13:24:04;33.20;44.60
7388;DHT22;3735;50.136;11.062;2022-09-09T13:26:33;33.20;38.90
7388;DHT22;3735;50.136;11.062;2022-09-09T13:29:19;32.80;37.90
7388;DHT22;3735;50.136;11.062;2022-09-09T13:31:45;31.10;40.30
7388;DHT22;3735;50.136;11.062;2022-09-09T13:34:22;29.60;44.40
7388;DHT22;3735;50.136;11.062;2022-09-09T13:37:02;28.30;51.00
7388;DHT22;3735;50.136;11.062;2022-09-09T13:39:33;27.80;74.40
7388;DHT22;3735;50.136;11.062;2022-09-09T13:42:02;28.30;75.40
7388;DHT22;3735;50.136;11.062;2022-09-09T13:44:31;30.30;59.50
7388;DHT22;3735;50.136;11.062;2022-09-09T13:47:20;31.60;55.80
7388;DHT22;3735;50.136;11.062;2022-09-09T13:49:51;31.40;47.60
7388;DHT22;3735;50.136;11.062;2022-09-09T13:52:18;29.90;45.80
7388;DHT22;3735;50.136;11.062;2022-09-09T13:54:48;29.60;52.30
7388;DHT22;3735;50.136;11.062;2022-09-09T13:57:20;29.20;50.60
7388;DHT22;3735;50.136;11.062;2022-09-09T13:59:51;29.70;40.80
7388;DHT22;3735;50.136;11.062;2022-09-09T14:02:20;30.50;39.20
7388;DHT22;3735;50.136;11.062;2022-09-09T14:04:48;30.70;36.90
7388;DHT22;3735;50.136;11.062;2022-09-09T14:07:17;30.10;35.40
7388;DHT22;3735;50.136;11.062;2022-09-09T14:09:43;28.40;37.00
7388;DHT22;3735;50.136;11.062;2022-09-09T14:12:14;27.20;43.30
7388;DHT22;3735;50.136;11.062;2022-09-09T14:14:41;26.30;48.70
7388;DHT22;3735;50.136;11.062;2022-09-09T14:17:08;26.40;54.10
7388;DHT22;3735;50.136;11.062;2022-09-09T14:19:34;27.90;52.10
7388;DHT22;3735;50.136;11.062;2022-09-09T14:22:00;27.80;46.10
7388;DHT22;3735;50.136;11.062;2022-09-09T14:24:26;26.80;44.00
7388;DHT22;3735;50.136;11.062;2022-09-09T14:26:53;26.20;49.00
7388;DHT22;3735;50.136;11.062;2022-09-09T14:29:20;27.50;47.10
7388;DHT22;3735;50.136;11.062;2022-09-09T14:31:46;28.60;38.90
7388;DHT22;3735;50.136;11.062;2022-09-09T14:34:12;29.20;35.80
7388;DHT22;3735;50.136;11.062;2022-09-09T14:36:38;29.50;34.10
7388;DHT22;3735;50.136;11.062;2022-09-09T14:39:04;29.40;33.10
7388;DHT22;3735;50.136;11.062;2022-09-09T14:41:30;28.80;34.80
7388;DHT22;3735;50.136;11.062;2022-09-09T14:43:56;28.90;36.70
7388;DHT22;3735;50.136;11.062;2022-09-09T14:46:22;28.90;36.00
7388;DHT22;3735;50.136;11.062;2022-09-09T14:48:49;28.70;36.30
7388;DHT22;3735;50.136;11.062;2022-09-09T14:51:20;29.00;37.90
7388;DHT22;3735;50.136;11.062;2022-09-09T14:53:48;29.70;36.00
7388;DHT22;3735;50.136;11.062;2022-09-09T14:56:18;30.00;35.50
7388;DHT22;3735;50.136;11.062;2022-09-09T14:58:46;30.10;32.90
7388;DHT22;3735;50.136;11.062;2022-09-09T15:01:15;29.40;34.20
7388;DHT22;3735;50.136;11.062;2022-09-09T15:03:47;29.40;35.30
7388;DHT22;3735;50.136;11.062;2022-09-09T15:06:15;29.20;34.10
7388;DHT22;3735;50.136;11.062;2022-09-09T15:08:44;27.70;36.60
7388;DHT22;3735;50.136;11.062;2022-09-09T15:11:12;26.30;41.10
7388;DHT22;3735;50.136;11.062;2022-09-09T15:13:41;25.30;47.80
7388;DHT22;3735;50.136;11.062;2022-09-09T15:18:39;24.10;63.70
7388;DHT22;3735;50.136;11.062;2022-09-09T15:21:09;23.70;77.90
7388;DHT22;3735;50.136;11.062;2022-09-09T15:23:35;23.40;91.30
7388;DHT22;3735;50.136;11.062;2022-09-09T15:26:02;23.10;97.90
7388;DHT22;3735;50.136;11.062;2022-09-09T15:28:36;23.10;99.90
7388;DHT22;3735;50.136;11.062;2022-09-09T15:31:11;23.00;99.90
7388;DHT22;3735;50.136;11.062;2022-09-09T15:33:38;23.00;99.90
7388;DHT22;3735;50.136;11.062;2022-09-09T15:36:25;22.90;99.90
7388;DHT22;3735;50.136;11.062;2022-09-09T15:38:54;22.90;99.90
7388;DHT22;3735;50.136;11.062;2022-09-09T15:41:21;22.80;99.90
7388;DHT22;3735;50.136;11.062;2022-09-09T15:43:50;22.70;99.90
7388;DHT22;3735;50.136;11.062;2022-09-09T15:48:43;22.30;99.90
7388;DHT22;3735;50.136;11.062;2022-09-09T15:51:10;22.30;99.90
7388;DHT22;3735;50.136;11.062;2022-09-09T15:53:37;22.20;99.90
7388;DHT22;3735;50.136;11.062;2022-09-09T15:56:05;22.10;99.90
7388;DHT22;3735;50.136;11.062;2022-09-09T15:58:35;22.20;99.90
7388;DHT22;3735;50.136;11.062;2022-09-09T16:01:08;22.30;99.90
7388;DHT22;3735;50.136;11.062;2022-09-09T16:03:37;22.30;99.90
7388;DHT22;3735;50.136;11.062;2022-09-09T16:06:05;22.30;99.90
7388;DHT22;3735;50.136;11.062;2022-09-09T16:08:35;22.30;99.90
7388;DHT22;3735;50.136;11.062;2022-09-09T16:11:33;22.20;99.90
7388;DHT22;3735;50.136;11.062;2022-09-09T16:14:01;22.00;99.90
7388;DHT22;3735;50.136;11.062;2022-09-09T16:16:29;21.70;99.90
7388;DHT22;3735;50.136;11.062;2022-09-09T16:18:57;21.40;99.90
7388;DHT22;3735;50.136;11.062;2022-09-09T16:21:30;21.20;99.90
7388;DHT22;3735;50.136;11.062;2022-09-09T16:23:59;21.00;99.90
7388;DHT22;3735;50.136;11.062;2022-09-09T16:26:27;20.90;99.90
7388;DHT22;3735;50.136;11.062;2022-09-09T16:28:53;20.80;99.90
7388;DHT22;3735;50.136;11.062;2022-09-09T16:31:21;20.60;99.90
7388;DHT22;3735;50.136;11.062;2022-09-09T16:33:49;20.50;99.90
7388;DHT22;3735;50.136;11.062;2022-09-09T16:36:29;20.30;99.90
7388;DHT22;3735;50.136;11.062;2022-09-09T16:38:58;20.20;99.90
7388;DHT22;3735;50.136;11.062;2022-09-09T16:41:27;20.10;99.90
7388;DHT22;3735;50.136;11.062;2022-09-09T16:43:54;20.00;99.90
7388;DHT22;3735;50.136;11.062;2022-09-09T16:46:22;19.90;99.90
7388;DHT22;3735;50.136;11.062;2022-09-09T16:48:50;19.90;99.90
7388;DHT22;3735;50.136;11.062;2022-09-09T16:51:19;19.80;99.90
7388;DHT22;3735;50.136;11.062;2022-09-09T16:53:46;19.80;99.90
7388;DHT22;3735;50.136;11.062;2022-09-09T16:56:14;19.80;99.90
7388;DHT22;3735;50.136;11.062;2022-09-09T16:58:42;19.80;99.90
7388;DHT22;3735;50.136;11.062;2022-09-09T17:01:09;19.80;99.90
7388;DHT22;3735;50.136;11.062;2022-09-09T17:03:40;19.70;99.90
7388;DHT22;3735;50.136;11.062;2022-09-09T17:06:10;19.70;99.90
7388;DHT22;3735;50.136;11.062;2022-09-09T17:08:41;19.60;99.90
7388;DHT22;3735;50.136;11.062;2022-09-09T17:11:16;19.40;99.90
7388;DHT22;3735;50.136;11.062;2022-09-09T17:13:44;18.90;99.90
7388;DHT22;3735;50.136;11.062;2022-09-09T17:16:13;18.30;99.90
7388;DHT22;3735;50.136;11.062;2022-09-09T17:18:40;17.80;99.90
7388;DHT22;3735;50.136;11.062;2022-09-09T17:21:08;17.40;99.90
7388;DHT22;3735;50.136;11.062;2022-09-09T17:23:37;17.00;99.90
7388;DHT22;3735;50.136;11.062;2022-09-09T17:26:05;16.70;99.90
7388;DHT22;3735;50.136;11.062;2022-09-09T17:28:36;16.40;99.90
7388;DHT22;3735;50.136;11.062;2022-09-09T17:31:05;16.10;99.90
7388;DHT22;3735;50.136;11.062;2022-09-09T17:33:34;15.90;99.90
7388;DHT22;3735;50.136;11.062;2022-09-09T17:36:07;15.80;99.90
7388;DHT22;3735;50.136;11.062;2022-09-09T17:38:40;15.60;99.90
7388;DHT22;3735;50.136;11.062;2022-09-09T17:41:14;15.40;99.90
7388;DHT22;3735;50.136;11.062;2022-09-09T17:43:43;15.20;99.90
7388;DHT22;3735;50.136;11.062;2022-09-09T17:46:30;15.10;99.90
7388;DHT22;3735;50.136;11.062;2022-09-09T17:49:02;14.90;99.90
7388;DHT22;3735;50.136;11.062;2022-09-09T17:51:31;14.80;99.90
7388;DHT22;3735;50.136;11.062;2022-09-09T17:54:00;14.70;99.90
7388;DHT22;3735;50.136;11.062;2022-09-09T17:56:30;14.70;99.90
7388;DHT22;3735;50.136;11.062;2022-09-09T17:58:58;14.70;99.90
7388;DHT22;3735;50.136;11.062;2022-09-09T18:01:31;14.70;99.90
7388;DHT22;3735;50.136;11.062;2022-09-09T18:04:00;14.70;99.90
7388;DHT22;3735;50.136;11.062;2022-09-09T18:06:32;14.70;99.90
7388;DHT22;3735;50.136;11.062;2022-09-09T18:09:04;14.70;99.90
7388;DHT22;3735;50.136;11.062;2022-09-09T18:11:35;14.60;99.90
7388;DHT22;3735;50.136;11.062;2022-09-09T18:14:07;14.60;99.90
7388;DHT22;3735;50.136;11.062;2022-09-09T18:16:35;14.60;99.90
7388;DHT22;3735;50.136;11.062;2022-09-09T18:19:03;14.60;99.90
7388;DHT22;3735;50.136;11.062;2022-09-09T18:21:31;14.60;99.90
7388;DHT22;3735;50.136;11.062;2022-09-09T18:24:03;14.50;99.90
7388;DHT22;3735;50.136;11.062;2022-09-09T18:26:31;14.50;99.90
7388;DHT22;3735;50.136;11.062;2022-09-09T18:29:04;14.50;99.90
7388;DHT22;3735;50.136;11.062;2022-09-09T18:31:34;14.50;99.90
7388;DHT22;3735;50.136;11.062;2022-09-09T18:34:03;14.50;99.90
7388;DHT22;3735;50.136;11.062;2022-09-09T18:36:45;14.40;99.90
7388;DHT22;3735;50.136;11.062;2022-09-09T18:39:15;14.40;99.90
7388;DHT22;3735;50.136;11.062;2022-09-09T18:41:45;14.40;99.90
7388;DHT22;3735;50.136;11.062;2022-09-09T18:44:15;14.40;99.90
7388;DHT22;3735;50.136;11.062;2022-09-09T18:46:43;14.30;99.90
7388;DHT22;3735;50.136;11.062;2022-09-09T18:49:09;14.30;99.90
7388;DHT22;3735;50.136;11.062;2022-09-09T18:51:37;14.30;99.90
7388;DHT22;3735;50.136;11.062;2022-09-09T18:54:09;14.40;99.90